createdAt,value
2022-12-14T00:01:31.439Z,20.09
2022-12-14T00:03:58.093Z,20.09
2022-12-14T00:06:30.034Z,20.05
2022-12-14T00:08:59.259Z,20.09
2022-12-14T00:11:26.366Z,20.09
2022-12-14T00:13:58.513Z,19.99
2022-12-14T00:16:26.243Z,20.09
2022-12-14T00:18:54.686Z,20.11
2022-12-14T00:21:21.921Z,20.10
2022-12-14T00:23:53.024Z,20.11
2022-12-14T00:26:25.049Z,20.11
2022-12-14T00:28:53.843Z,20.11
2022-12-14T00:31:21.950Z,20.10
2022-12-14T00:33:50.417Z,20.10
2022-12-14T00:36:17.245Z,20.02
2022-12-14T00:38:43.847Z,20.07
2022-12-14T00:41:11.730Z,20.10
2022-12-14T00:43:38.519Z,20.03
2022-12-14T00:46:05.441Z,20.09
2022-12-14T00:48:32.676Z,20.10
2022-12-14T00:50:59.789Z,20.06
2022-12-14T00:53:26.514Z,20.09
2022-12-14T00:55:53.191Z,20.01
2022-12-14T00:58:23.667Z,19.99
2022-12-14T01:01:09.856Z,20.10
2022-12-14T01:03:36.488Z,20.09
2022-12-14T01:06:04.034Z,20.09
2022-12-14T01:08:35.544Z,20.07
2022-12-14T01:11:07.655Z,20.09
2022-12-14T01:13:36.516Z,20.09
2022-12-14T01:16:09.660Z,20.08
2022-12-14T01:18:38.175Z,20.08
2022-12-14T01:21:15.763Z,20.07
2022-12-14T01:23:44.094Z,20.08
2022-12-14T01:26:12.128Z,20.06
2022-12-14T01:28:38.723Z,20.06
2022-12-14T01:31:11.081Z,20.07
2022-12-14T01:33:38.047Z,20.07
2022-12-14T01:36:16.539Z,20.07
2022-12-14T01:38:44.295Z,20.01
2022-12-14T01:41:23.966Z,20.05
2022-12-14T01:43:53.593Z,20.06
2022-12-14T01:46:45.085Z,20.04
2022-12-14T01:49:31.949Z,20.03
2022-12-14T01:52:07.587Z,20.04
2022-12-14T01:54:37.819Z,20.03
2022-12-14T01:57:04.434Z,20.02
2022-12-14T01:59:36.439Z,20.02
2022-12-14T02:02:05.496Z,20.02
2022-12-14T02:04:35.247Z,20.01
2022-12-14T02:07:03.167Z,20.01
2022-12-14T02:09:35.688Z,20.00
2022-12-14T02:12:31.323Z,20.00
2022-12-14T02:14:58.830Z,19.99
2022-12-14T02:17:25.767Z,19.98
2022-12-14T02:19:52.714Z,19.98
2022-12-14T02:22:56.260Z,19.98
2022-12-14T02:25:43.993Z,19.96
2022-12-14T02:28:25.039Z,19.97
2022-12-14T02:31:06.244Z,19.95
2022-12-14T02:33:38.571Z,19.94
2022-12-14T02:36:10.978Z,19.95
2022-12-14T02:38:59.204Z,19.94
2022-12-14T02:41:54.263Z,19.93
2022-12-14T02:44:39.039Z,19.92
2022-12-14T02:47:05.741Z,19.90
2022-12-14T02:49:51.150Z,19.90
2022-12-14T02:52:37.104Z,19.90
2022-12-14T02:55:11.631Z,19.90
2022-12-14T02:57:50.934Z,19.87
2022-12-14T03:00:19.219Z,19.89
2022-12-14T03:02:48.235Z,19.90
2022-12-14T03:05:15.252Z,19.84
2022-12-14T03:07:49.320Z,19.88
2022-12-14T03:10:38.042Z,19.86
2022-12-14T03:13:16.716Z,19.87
2022-12-14T03:15:47.355Z,19.85
2022-12-14T03:20:38.106Z,19.83
2022-12-14T03:23:10.225Z,19.83
2022-12-14T03:25:41.434Z,19.84
2022-12-14T03:28:15.548Z,19.76
2022-12-14T03:30:59.901Z,19.82
2022-12-14T03:33:29.200Z,19.79
2022-12-14T03:36:13.106Z,19.81
2022-12-14T03:38:43.543Z,19.78
2022-12-14T03:41:20.268Z,19.80
2022-12-14T03:44:19.388Z,19.79
2022-12-14T03:47:02.530Z,19.78
2022-12-14T03:50:20.284Z,19.76
2022-12-14T03:52:51.928Z,19.66
2022-12-14T03:55:41.640Z,19.75
2022-12-14T03:58:35.934Z,19.74
2022-12-14T04:01:24.001Z,19.73
2022-12-14T04:04:01.295Z,19.73
2022-12-14T04:06:58.927Z,19.72
2022-12-14T04:09:32.368Z,19.71
2022-12-14T04:12:34.440Z,19.50
2022-12-14T04:15:32.366Z,19.69
2022-12-14T04:18:23.911Z,19.68
2022-12-14T04:20:56.354Z,19.68
2022-12-14T04:23:58.339Z,19.67
2022-12-14T04:26:29.797Z,19.58
2022-12-14T04:29:19.416Z,19.66
2022-12-14T04:31:51.541Z,19.63
2022-12-14T04:34:20.083Z,19.64
2022-12-14T04:36:51.914Z,19.64
2022-12-14T04:39:26.975Z,19.53
2022-12-14T04:41:58.752Z,19.63
2022-12-14T04:44:31.888Z,19.59
2022-12-14T04:46:59.387Z,19.62
2022-12-14T04:49:59.356Z,19.61
2022-12-14T04:52:36.151Z,19.61
2022-12-14T04:55:15.696Z,19.61
2022-12-14T04:57:45.862Z,19.58
2022-12-14T05:00:13.014Z,19.50
2022-12-14T05:02:45.604Z,19.58
2022-12-14T05:05:25.473Z,19.49
2022-12-14T05:07:58.618Z,19.57
2022-12-14T05:10:30.876Z,19.55
2022-12-14T05:13:18.885Z,19.56
2022-12-14T05:15:50.214Z,19.54
2022-12-14T05:18:17.448Z,19.56
2022-12-14T05:20:45.707Z,19.55
2022-12-14T05:23:12.498Z,19.54
2022-12-14T05:25:39.051Z,19.39
2022-12-14T05:28:05.660Z,19.51
2022-12-14T05:30:33.079Z,19.53
2022-12-14T05:32:59.823Z,19.53
2022-12-14T05:35:26.385Z,19.53
2022-12-14T05:37:53.100Z,19.52
2022-12-14T05:40:19.735Z,19.50
2022-12-14T05:42:49.888Z,19.50
2022-12-14T05:45:20.507Z,19.50
2022-12-14T05:47:48.393Z,19.50
2022-12-14T05:50:15.270Z,19.49
2022-12-14T05:52:41.777Z,19.22
2022-12-14T05:55:09.026Z,19.48
2022-12-14T05:57:35.620Z,19.48
2022-12-14T06:00:03.735Z,19.43
2022-12-14T06:02:31.707Z,19.47
2022-12-14T06:04:58.348Z,19.47
2022-12-14T06:07:28.066Z,19.42
2022-12-14T06:09:55.076Z,19.37
2022-12-14T06:12:22.009Z,19.40
2022-12-14T06:14:48.610Z,19.49
2022-12-14T06:17:15.156Z,19.34
2022-12-14T06:19:42.460Z,19.34
2022-12-14T06:22:16.538Z,19.33
2022-12-14T06:24:43.043Z,19.48
2022-12-14T06:27:09.615Z,19.40
2022-12-14T06:29:36.234Z,19.40
2022-12-14T06:32:02.806Z,19.19
2022-12-14T06:34:32.832Z,19.45
2022-12-14T06:37:02.004Z,19.35
2022-12-14T06:39:28.775Z,19.47
2022-12-14T06:41:55.638Z,19.48
2022-12-14T06:44:22.263Z,19.41
2022-12-14T06:46:48.966Z,19.51
2022-12-14T06:49:15.982Z,19.50
2022-12-14T06:51:42.995Z,19.50
2022-12-14T06:54:11.471Z,19.39
2022-12-14T06:56:39.133Z,19.40
2022-12-14T06:59:05.792Z,19.22
2022-12-14T07:01:34.955Z,19.48
2022-12-14T07:04:01.791Z,19.47
2022-12-14T07:06:32.311Z,19.47
2022-12-14T07:09:00.670Z,19.46
2022-12-14T07:11:29.253Z,19.43
2022-12-14T07:13:57.150Z,19.32
2022-12-14T07:16:26.255Z,19.39
2022-12-14T07:18:56.217Z,19.43
2022-12-14T07:21:23.678Z,19.39
2022-12-14T07:23:52.357Z,19.42
2022-12-14T07:26:25.320Z,19.14
2022-12-14T07:28:52.997Z,19.41
2022-12-14T07:31:23.086Z,19.34
2022-12-14T07:33:53.150Z,19.40
2022-12-14T07:36:21.222Z,19.41
2022-12-14T07:38:49.664Z,19.41
2022-12-14T07:41:22.055Z,19.43
2022-12-14T07:43:50.162Z,19.40
2022-12-14T07:46:20.377Z,19.45
2022-12-14T07:48:49.301Z,19.46
2022-12-14T07:51:17.922Z,19.47
2022-12-14T07:53:44.686Z,19.47
2022-12-14T07:56:14.004Z,19.50
2022-12-14T07:58:41.480Z,19.51
2022-12-14T08:01:20.057Z,19.54
2022-12-14T08:04:10.944Z,19.55
2022-12-14T08:06:38.955Z,19.56
2022-12-14T08:09:06.574Z,19.57
2022-12-14T08:11:33.219Z,19.60
2022-12-14T08:14:02.711Z,19.61
2022-12-14T08:16:29.450Z,19.63
2022-12-14T08:18:57.914Z,19.65
2022-12-14T08:21:26.392Z,19.67
2022-12-14T08:23:55.395Z,19.69
2022-12-14T08:26:24.008Z,19.65
2022-12-14T08:28:55.231Z,19.71
2022-12-14T08:31:25.374Z,19.74
2022-12-14T08:33:52.476Z,19.68
2022-12-14T08:36:28.070Z,19.76
2022-12-14T08:38:56.557Z,19.76
2022-12-14T08:41:24.239Z,19.80
2022-12-14T08:43:56.339Z,19.81
2022-12-14T08:46:24.187Z,19.83
2022-12-14T08:48:52.610Z,19.85
2022-12-14T08:51:20.360Z,19.86
2022-12-14T08:53:50.440Z,19.78
2022-12-14T08:56:20.874Z,19.89
2022-12-14T08:58:47.642Z,19.83
2022-12-14T09:01:17.167Z,19.82
2022-12-14T09:03:45.567Z,19.92
2022-12-14T09:06:15.730Z,19.92
2022-12-14T09:08:42.528Z,19.91
2022-12-14T09:11:12.840Z,19.95
2022-12-14T09:13:39.528Z,19.97
2022-12-14T09:16:11.037Z,19.97
2022-12-14T09:18:37.708Z,19.98
2022-12-14T09:21:04.981Z,19.98
2022-12-14T09:23:34.044Z,19.98
2022-12-14T09:26:06.186Z,19.99
2022-12-14T09:28:35.399Z,20.00
2022-12-14T09:31:07.958Z,20.01
2022-12-14T09:33:34.976Z,20.01
2022-12-14T09:36:09.374Z,19.99
2022-12-14T09:38:39.186Z,20.03
2022-12-14T09:41:08.256Z,19.95
2022-12-14T09:43:43.721Z,20.03
2022-12-14T09:46:21.317Z,20.04
2022-12-14T09:48:49.134Z,20.04
2022-12-14T09:51:18.734Z,20.05
2022-12-14T09:53:47.763Z,20.05
2022-12-14T09:56:18.189Z,20.06
2022-12-14T09:58:54.329Z,20.07
2022-12-14T10:01:33.157Z,20.08
2022-12-14T10:04:18.191Z,20.02
2022-12-14T10:06:57.648Z,20.08
2022-12-14T10:09:33.570Z,20.09
2022-12-14T10:12:15.331Z,20.10
2022-12-14T10:15:07.749Z,20.01
2022-12-14T10:18:05.378Z,20.10
2022-12-14T10:20:54.318Z,20.10
2022-12-14T10:23:23.580Z,20.11
2022-12-14T10:25:54.319Z,20.11
2022-12-14T10:28:37.683Z,20.13
2022-12-14T10:31:09.374Z,20.11
2022-12-14T10:33:43.936Z,20.14
2022-12-14T10:36:28.691Z,20.16
2022-12-14T10:39:06.932Z,20.15
2022-12-14T10:41:49.429Z,20.16
2022-12-14T10:44:27.912Z,20.17
2022-12-14T10:47:07.407Z,20.18
2022-12-14T10:49:42.440Z,20.18
2022-12-14T10:52:16.808Z,20.19
2022-12-14T10:54:49.583Z,20.20
2022-12-14T10:57:24.759Z,20.19
2022-12-14T11:00:07.809Z,20.20
2022-12-14T11:02:41.053Z,20.21
2022-12-14T11:05:36.665Z,20.20
2022-12-14T11:08:07.870Z,20.21
2022-12-14T11:10:36.649Z,20.22
2022-12-14T11:13:14.087Z,20.21
2022-12-14T11:15:49.051Z,20.21
2022-12-14T11:18:15.644Z,20.22
2022-12-14T11:21:00.028Z,20.22
2022-12-14T11:23:38.659Z,20.14
2022-12-14T11:26:12.474Z,20.22
2022-12-14T11:28:54.331Z,20.22
2022-12-14T11:31:21.016Z,20.22
2022-12-14T11:33:50.829Z,20.22
2022-12-14T11:36:23.540Z,20.21
2022-12-14T11:39:07.099Z,20.21
2022-12-14T11:41:36.953Z,20.22
2022-12-14T11:44:26.038Z,20.23
2022-12-14T11:47:04.811Z,20.17
2022-12-14T11:49:40.491Z,20.24
2022-12-14T11:52:20.935Z,20.25
2022-12-14T11:55:06.793Z,20.25
2022-12-14T11:57:48.538Z,20.26
2022-12-14T12:00:26.267Z,20.27
2022-12-14T12:03:03.168Z,20.27
2022-12-14T12:05:33.571Z,20.26
2022-12-14T12:08:02.714Z,20.25
2022-12-14T12:10:50.195Z,20.18
2022-12-14T12:13:24.120Z,20.26
2022-12-14T12:15:54.894Z,20.25
2022-12-14T12:18:33.866Z,20.23
2022-12-14T12:21:11.141Z,20.17
2022-12-14T12:23:57.952Z,20.13
2022-12-14T12:26:35.645Z,20.21
2022-12-14T12:29:12.539Z,20.19
2022-12-14T12:31:48.796Z,20.15
2022-12-14T12:34:21.895Z,20.18
2022-12-14T12:37:17.429Z,20.17
2022-12-14T12:39:38.751Z,20.12
2022-12-14T12:42:26.300Z,20.16
2022-12-14T12:45:03.333Z,20.14
2022-12-14T12:47:46.739Z,20.14
2022-12-14T12:50:21.782Z,20.14
2022-12-14T12:53:09.796Z,20.04
2022-12-14T12:55:52.124Z,20.02
2022-12-14T12:58:29.480Z,20.03
2022-12-14T13:01:00.980Z,20.10
2022-12-14T13:03:39.588Z,20.09
2022-12-14T13:06:40.804Z,20.08
2022-12-14T13:09:21.291Z,20.07
2022-12-14T13:11:49.086Z,20.06
2022-12-14T13:14:21.224Z,20.07
2022-12-14T13:16:49.684Z,20.05
2022-12-14T13:19:49.233Z,20.05
2022-12-14T13:22:27.455Z,20.01
2022-12-14T13:24:59.486Z,20.05
2022-12-14T13:27:49.474Z,20.04
2022-12-14T13:30:23.012Z,20.02
2022-12-14T13:33:15.182Z,20.02
2022-12-14T13:35:50.192Z,20.01
2022-12-14T13:38:33.349Z,20.00
2022-12-14T13:41:09.531Z,19.99
2022-12-14T13:44:07.631Z,19.98
2022-12-14T13:46:34.479Z,19.98
2022-12-14T13:49:06.244Z,19.99
2022-12-14T13:51:37.923Z,19.98
2022-12-14T13:54:08.208Z,19.99
2022-12-14T13:56:38.348Z,20.00
2022-12-14T13:59:40.366Z,20.00
2022-12-14T14:02:29.794Z,20.00
2022-12-14T14:05:14.559Z,20.00
2022-12-14T14:07:56.116Z,20.00
2022-12-14T14:10:37.169Z,20.00
2022-12-14T14:13:28.523Z,20.00
2022-12-14T14:16:26.740Z,20.00
2022-12-14T14:19:09.060Z,20.00
2022-12-14T14:22:06.319Z,19.92
2022-12-14T14:24:29.903Z,20.00
2022-12-14T14:27:11.454Z,19.99
2022-12-14T14:29:46.453Z,19.99
2022-12-14T14:32:40.292Z,19.99
2022-12-14T14:35:21.025Z,19.99
2022-12-14T14:37:59.221Z,19.99
2022-12-14T14:40:58.262Z,20.00
2022-12-14T14:43:28.312Z,19.99
2022-12-14T14:45:58.013Z,20.00
2022-12-14T14:48:30.673Z,19.98
2022-12-14T14:51:16.212Z,19.98
2022-12-14T14:53:43.391Z,19.89
2022-12-14T14:56:36.246Z,19.98
2022-12-14T14:59:38.811Z,19.98
2022-12-14T15:02:29.997Z,19.97
2022-12-14T15:04:57.486Z,19.98
2022-12-14T15:07:30.770Z,19.98
2022-12-14T15:10:06.246Z,19.98
2022-12-14T15:12:32.832Z,19.99
2022-12-14T15:15:15.351Z,19.94
2022-12-14T15:17:42.587Z,19.98
2022-12-14T15:20:28.931Z,19.97
2022-12-14T15:22:56.347Z,19.97
2022-12-14T15:25:29.521Z,19.97
2022-12-14T15:28:01.807Z,19.88
2022-12-14T15:30:29.307Z,19.96
2022-12-14T15:33:01.311Z,19.96
2022-12-14T15:35:35.944Z,19.90
2022-12-14T15:38:32.905Z,19.96
2022-12-14T15:41:03.306Z,19.95
2022-12-14T15:43:30.804Z,19.94
2022-12-14T15:46:04.127Z,19.95
2022-12-14T15:48:35.555Z,19.96
2022-12-14T15:51:05.255Z,19.89
2022-12-14T15:53:50.369Z,19.87
2022-12-14T15:56:25.628Z,19.96
2022-12-14T15:58:53.543Z,19.96
2022-12-14T16:01:25.642Z,19.97
2022-12-14T16:03:56.543Z,19.97
2022-12-14T16:06:25.851Z,19.97
2022-12-14T16:08:59.966Z,19.96
2022-12-14T16:11:39.996Z,19.96
2022-12-14T16:14:24.876Z,19.97
2022-12-14T16:16:51.933Z,19.97
2022-12-14T16:19:27.694Z,19.97
2022-12-14T16:22:10.647Z,19.97
2022-12-14T16:24:38.170Z,19.96
2022-12-14T16:27:19.314Z,19.96
2022-12-14T16:30:17.718Z,19.97
2022-12-14T16:32:52.095Z,19.97
2022-12-14T16:35:24.847Z,19.95
2022-12-14T16:37:55.685Z,19.98
2022-12-14T16:40:36.160Z,19.98
2022-12-14T16:43:05.160Z,19.98
2022-12-14T16:45:54.743Z,19.98
2022-12-14T16:48:23.123Z,19.98
2022-12-14T16:51:01.798Z,19.99
2022-12-14T16:53:34.989Z,19.98
2022-12-14T16:56:04.304Z,19.98
2022-12-14T16:58:31.352Z,19.99
2022-12-14T17:01:01.257Z,19.98
2022-12-14T17:03:32.942Z,19.98
2022-12-14T17:06:02.898Z,19.98
2022-12-14T17:08:29.616Z,19.99
2022-12-14T17:10:57.663Z,19.99
2022-12-14T17:13:24.219Z,19.98
2022-12-14T17:16:00.465Z,20.00
2022-12-14T17:18:33.968Z,20.00
2022-12-14T17:21:01.766Z,19.98
2022-12-14T17:23:29.216Z,20.00
2022-12-14T17:25:56.083Z,20.01
2022-12-14T17:28:35.340Z,20.01
2022-12-14T17:31:02.891Z,19.99
2022-12-14T17:33:31.624Z,19.99
2022-12-14T17:35:58.523Z,20.01
2022-12-14T17:38:25.451Z,20.00
2022-12-14T17:40:53.762Z,20.01
2022-12-14T17:43:24.507Z,19.94
2022-12-14T17:45:51.366Z,20.02
2022-12-14T17:48:20.507Z,20.01
2022-12-14T17:50:52.214Z,20.00
2022-12-14T17:53:26.005Z,20.00
2022-12-14T17:55:52.763Z,19.99
2022-12-14T17:58:22.113Z,19.99
2022-12-14T18:01:03.263Z,19.95
2022-12-14T18:03:36.521Z,19.98
2022-12-14T18:06:04.591Z,19.97
2022-12-14T18:08:31.333Z,19.98
2022-12-14T18:11:05.454Z,19.97
2022-12-14T18:13:34.985Z,19.91
2022-12-14T18:16:01.577Z,19.95
2022-12-14T18:18:29.589Z,19.94
2022-12-14T18:21:00.415Z,19.93
2022-12-14T18:23:28.899Z,19.96
2022-12-14T18:25:58.430Z,19.76
2022-12-14T18:28:27.781Z,19.84
2022-12-14T18:30:56.782Z,19.94
2022-12-14T18:33:26.340Z,19.94
2022-12-14T18:35:54.599Z,19.94
2022-12-14T18:38:21.751Z,19.94
2022-12-14T18:40:50.320Z,19.93
2022-12-14T18:43:25.577Z,19.94
2022-12-14T18:45:53.908Z,19.92
2022-12-14T18:48:21.021Z,19.88
2022-12-14T18:50:49.924Z,19.94
2022-12-14T18:53:19.050Z,19.94
2022-12-14T18:55:46.549Z,19.92
2022-12-14T18:58:22.294Z,19.94
2022-12-14T19:00:54.179Z,19.93
2022-12-14T19:03:22.061Z,19.92
2022-12-14T19:05:49.016Z,19.94
2022-12-14T19:08:15.945Z,19.94
2022-12-14T19:10:45.990Z,19.93
2022-12-14T19:13:25.466Z,19.94
2022-12-14T19:15:54.203Z,19.95
2022-12-14T19:18:21.015Z,19.94
2022-12-14T19:20:49.561Z,19.94
2022-12-14T19:23:17.969Z,19.96
2022-12-14T19:25:47.651Z,19.95
2022-12-14T19:28:31.424Z,19.96
2022-12-14T19:30:59.992Z,19.97
2022-12-14T19:33:27.673Z,19.95
2022-12-14T19:35:54.752Z,19.92
2022-12-14T19:38:23.892Z,19.80
2022-12-14T19:41:21.331Z,19.97
2022-12-14T19:43:48.244Z,19.94
2022-12-14T19:46:16.053Z,19.97
2022-12-14T19:48:43.064Z,19.94
2022-12-14T19:51:12.499Z,19.66
2022-12-14T19:53:43.871Z,19.92
2022-12-14T19:56:13.509Z,19.81
2022-12-14T19:58:40.186Z,19.90
2022-12-14T20:01:12.795Z,19.84
2022-12-14T20:03:40.262Z,19.88
2022-12-14T20:06:08.318Z,19.81
2022-12-14T20:08:38.774Z,19.86
2022-12-14T20:11:11.128Z,19.85
2022-12-14T20:13:38.226Z,19.83
2022-12-14T20:16:05.121Z,19.72
2022-12-14T20:18:32.122Z,19.80
2022-12-14T20:21:07.678Z,19.79
2022-12-14T20:23:36.483Z,19.79
2022-12-14T20:26:16.514Z,19.79
2022-12-14T20:28:43.272Z,19.79
2022-12-14T20:31:10.821Z,19.78
2022-12-14T20:33:38.402Z,19.77
2022-12-14T20:36:05.713Z,19.75
2022-12-14T20:38:32.510Z,19.59
2022-12-14T20:41:06.789Z,19.75
2022-12-14T20:43:38.101Z,19.74
2022-12-14T20:46:05.822Z,19.70
2022-12-14T20:48:33.048Z,19.73
2022-12-14T20:51:01.845Z,19.64
2022-12-14T20:53:30.602Z,19.68
2022-12-14T20:56:02.851Z,19.69
2022-12-14T20:58:29.478Z,19.68
2022-12-14T21:03:19.088Z,19.70
2022-12-14T21:05:45.791Z,19.68
2022-12-14T21:08:15.536Z,19.68
2022-12-14T21:10:42.931Z,19.68
2022-12-14T21:13:09.487Z,19.69
2022-12-14T21:15:36.291Z,19.70
2022-12-14T21:18:03.056Z,19.69
2022-12-14T21:20:29.630Z,19.72
2022-12-14T21:22:56.247Z,19.73
2022-12-14T21:25:22.918Z,19.74
2022-12-14T21:27:49.503Z,19.74
2022-12-14T21:30:17.042Z,19.77
2022-12-14T21:32:43.894Z,19.78
2022-12-14T21:35:10.598Z,19.70
2022-12-14T21:37:38.314Z,19.81
2022-12-14T21:40:05.644Z,19.78
2022-12-14T21:42:32.174Z,19.73
2022-12-14T21:44:58.887Z,19.82
2022-12-14T21:47:28.501Z,19.88
2022-12-14T21:49:55.976Z,19.89
2022-12-14T21:52:25.678Z,19.88
2022-12-14T21:54:52.383Z,19.89
2022-12-14T21:57:40.450Z,19.92
2022-12-14T22:00:10.614Z,19.91
2022-12-14T22:02:41.443Z,19.95
2022-12-14T22:05:10.314Z,19.88
2022-12-14T22:07:37.075Z,19.97
2022-12-14T22:10:03.991Z,19.91
2022-12-14T22:12:30.696Z,19.97
2022-12-14T22:14:57.414Z,20.01
2022-12-14T22:17:26.502Z,19.96
2022-12-14T22:19:55.067Z,20.03
2022-12-14T22:22:21.699Z,20.06
2022-12-14T22:24:49.774Z,20.06
2022-12-14T22:27:16.664Z,20.07
2022-12-14T22:29:43.197Z,20.10
2022-12-14T22:32:12.180Z,19.99
2022-12-14T22:34:39.072Z,20.13
2022-12-14T22:37:08.604Z,20.14
2022-12-14T22:41:51.919Z,20.14
2022-12-14T22:44:18.510Z,20.14
2022-12-14T22:46:45.026Z,20.14
2022-12-14T22:49:16.758Z,19.83
2022-12-14T22:51:43.399Z,20.12
2022-12-14T22:54:26.031Z,20.06
2022-12-14T22:57:20.765Z,20.12
2022-12-14T22:59:59.022Z,20.13
2022-12-14T23:02:26.485Z,20.02
2022-12-14T23:04:53.328Z,20.12
2022-12-14T23:07:20.084Z,19.91
2022-12-14T23:10:05.028Z,20.00
2022-12-14T23:12:50.706Z,20.03
2022-12-14T23:15:36.068Z,20.10
2022-12-14T23:18:28.526Z,20.05
2022-12-14T23:21:13.668Z,20.04
2022-12-14T23:24:00.846Z,20.10
2022-12-14T23:26:46.282Z,20.10
2022-12-14T23:29:31.887Z,19.98
2022-12-14T23:32:17.222Z,20.09
2022-12-14T23:35:02.507Z,20.08
2022-12-14T23:37:47.724Z,20.10
2022-12-14T23:40:33.182Z,20.05
2022-12-14T23:43:27.277Z,20.08
2022-12-14T23:46:13.038Z,20.08
2022-12-14T23:48:58.406Z,20.09
2022-12-14T23:51:43.719Z,20.08
2022-12-14T23:54:29.183Z,20.08
2022-12-14T23:57:17.314Z,20.09
